sensor_id;sensor_type;location;lat;lon;timestamp;temperature;humidity
67870;DHT22;54673;52.262;6.830;2023-10-31T00:01:35;12.10;99.90
67870;DHT22;54673;52.262;6.830;2023-10-31T00:04:00;12.10;99.90
67870;DHT22;54673;52.262;6.830;2023-10-31T00:06:26;12.10;99.90
67870;DHT22;54673;52.262;6.830;2023-10-31T00:08:52;12.10;99.90
67870;DHT22;54673;52.262;6.830;2023-10-31T00:11:17;12.10;99.90
67870;DHT22;54673;52.262;6.830;2023-10-31T00:13:43;12.10;99.90
67870;DHT22;54673;52.262;6.830;2023-10-31T00:16:08;12.10;99.90
67870;DHT22;54673;52.262;6.830;2023-10-31T00:18:34;12.10;99.90
67870;DHT22;54673;52.262;6.830;2023-10-31T00:21:00;12.10;99.90
67870;DHT22;54673;52.262;6.830;2023-10-31T00:23:25;12.10;99.90
67870;DHT22;54673;52.262;6.830;2023-10-31T00:25:51;12.50;99.90
67870;DHT22;54673;52.262;6.830;2023-10-31T00:28:17;12.10;99.90
67870;DHT22;54673;52.262;6.830;2023-10-31T00:30:42;12.20;99.90
67870;DHT22;54673;52.262;6.830;2023-10-31T00:33:08;12.70;99.90
67870;DHT22;54673;52.262;6.830;2023-10-31T00:35:33;12.10;99.90
67870;DHT22;54673;52.262;6.830;2023-10-31T00:37:59;12.10;99.90
67870;DHT22;54673;52.262;6.830;2023-10-31T00:40:25;12.10;99.90
67870;DHT22;54673;52.262;6.830;2023-10-31T00:42:50;12.10;99.90
67870;DHT22;54673;52.262;6.830;2023-10-31T00:45:16;12.40;99.90
67870;DHT22;54673;52.262;6.830;2023-10-31T00:47:41;12.10;99.90
67870;DHT22;54673;52.262;6.830;2023-10-31T00:50:07;12.10;99.90
67870;DHT22;54673;52.262;6.830;2023-10-31T00:52:34;12.10;99.90
67870;DHT22;54673;52.262;6.830;2023-10-31T00:54:59;12.10;99.90
67870;DHT22;54673;52.262;6.830;2023-10-31T00:57:25;12.10;99.90
67870;DHT22;54673;52.262;6.830;2023-10-31T00:59:51;12.10;99.90
67870;DHT22;54673;52.262;6.830;2023-10-31T01:02:16;12.00;99.90
67870;DHT22;54673;52.262;6.830;2023-10-31T01:04:42;12.30;99.90
67870;DHT22;54673;52.262;6.830;2023-10-31T01:07:07;12.10;99.90
67870;DHT22;54673;52.262;6.830;2023-10-31T01:09:37;12.10;99.90
67870;DHT22;54673;52.262;6.830;2023-10-31T01:12:03;12.10;99.90
67870;DHT22;54673;52.262;6.830;2023-10-31T01:14:28;12.10;99.90
67870;DHT22;54673;52.262;6.830;2023-10-31T01:16:54;12.20;99.90
67870;DHT22;54673;52.262;6.830;2023-10-31T01:19:19;12.70;99.90
67870;DHT22;54673;52.262;6.830;2023-10-31T01:21:45;12.10;99.90
67870;DHT22;54673;52.262;6.830;2023-10-31T01:24:10;12.10;99.90
67870;DHT22;54673;52.262;6.830;2023-10-31T01:26:36;12.10;99.90
67870;DHT22;54673;52.262;6.830;2023-10-31T01:29:02;12.20;99.90
67870;DHT22;54673;52.262;6.830;2023-10-31T01:31:27;12.10;99.90
67870;DHT22;54673;52.262;6.830;2023-10-31T01:33:53;12.10;99.90
67870;DHT22;54673;52.262;6.830;2023-10-31T01:36:19;12.30;99.90
67870;DHT22;54673;52.262;6.830;2023-10-31T01:38:49;12.10;99.90
67870;DHT22;54673;52.262;6.830;2023-10-31T01:41:14;12.00;99.90
67870;DHT22;54673;52.262;6.830;2023-10-31T01:43:40;12.00;99.90
67870;DHT22;54673;52.262;6.830;2023-10-31T01:46:05;12.20;99.90
67870;DHT22;54673;52.262;6.830;2023-10-31T01:48:32;12.70;99.90
67870;DHT22;54673;52.262;6.830;2023-10-31T01:50:59;12.50;99.90
67870;DHT22;54673;52.262;6.830;2023-10-31T01:53:25;12.10;99.90
67870;DHT22;54673;52.262;6.830;2023-10-31T01:55:54;12.20;99.90
67870;DHT22;54673;52.262;6.830;2023-10-31T01:58:25;12.00;99.90
67870;DHT22;54673;52.262;6.830;2023-10-31T02:00:55;12.80;99.90
67870;DHT22;54673;52.262;6.830;2023-10-31T02:03:21;12.00;99.90
67870;DHT22;54673;52.262;6.830;2023-10-31T02:05:46;12.70;99.90
67870;DHT22;54673;52.262;6.830;2023-10-31T02:08:12;12.00;99.90
67870;DHT22;54673;52.262;6.830;2023-10-31T02:10:38;13.00;99.90
67870;DHT22;54673;52.262;6.830;2023-10-31T02:13:17;11.90;99.90
67870;DHT22;54673;52.262;6.830;2023-10-31T02:15:43;12.00;99.90
67870;DHT22;54673;52.262;6.830;2023-10-31T02:18:09;12.20;99.90
67870;DHT22;54673;52.262;6.830;2023-10-31T02:20:35;11.90;99.90
67870;DHT22;54673;52.262;6.830;2023-10-31T02:23:01;12.80;99.90
67870;DHT22;54673;52.262;6.830;2023-10-31T02:25:28;11.90;99.90
67870;DHT22;54673;52.262;6.830;2023-10-31T02:27:53;11.80;99.90
67870;DHT22;54673;52.262;6.830;2023-10-31T02:30:19;12.00;99.90
67870;DHT22;54673;52.262;6.830;2023-10-31T02:32:45;12.40;99.90
67870;DHT22;54673;52.262;6.830;2023-10-31T02:35:12;11.80;99.90
67870;DHT22;54673;52.262;6.830;2023-10-31T02:37:39;11.80;99.90
67870;DHT22;54673;52.262;6.830;2023-10-31T02:40:05;11.90;99.90
67870;DHT22;54673;52.262;6.830;2023-10-31T02:42:31;11.80;99.90
67870;DHT22;54673;52.262;6.830;2023-10-31T02:44:57;11.80;99.90
67870;DHT22;54673;52.262;6.830;2023-10-31T02:47:22;12.40;99.90
67870;DHT22;54673;52.262;6.830;2023-10-31T02:49:48;11.70;99.90
67870;DHT22;54673;52.262;6.830;2023-10-31T02:52:13;11.70;99.90
67870;DHT22;54673;52.262;6.830;2023-10-31T02:54:39;11.60;99.90
67870;DHT22;54673;52.262;6.830;2023-10-31T02:57:04;12.10;99.90
67870;DHT22;54673;52.262;6.830;2023-10-31T02:59:30;11.70;99.90
67870;DHT22;54673;52.262;6.830;2023-10-31T03:01:57;11.60;99.90
67870;DHT22;54673;52.262;6.830;2023-10-31T03:04:23;11.90;99.90
67870;DHT22;54673;52.262;6.830;2023-10-31T03:06:49;11.60;99.90
67870;DHT22;54673;52.262;6.830;2023-10-31T03:09:14;12.10;99.90
67870;DHT22;54673;52.262;6.830;2023-10-31T03:11:40;11.60;99.90
67870;DHT22;54673;52.262;6.830;2023-10-31T03:14:05;11.60;99.90
67870;DHT22;54673;52.262;6.830;2023-10-31T03:16:31;11.50;99.90
67870;DHT22;54673;52.262;6.830;2023-10-31T03:18:58;11.90;99.90
67870;DHT22;54673;52.262;6.830;2023-10-31T03:21:23;11.50;99.90
67870;DHT22;54673;52.262;6.830;2023-10-31T03:23:50;11.50;99.90
67870;DHT22;54673;52.262;6.830;2023-10-31T03:26:18;11.50;99.90
67870;DHT22;54673;52.262;6.830;2023-10-31T03:28:44;11.50;99.90
67870;DHT22;54673;52.262;6.830;2023-10-31T03:31:10;11.90;99.90
67870;DHT22;54673;52.262;6.830;2023-10-31T03:33:36;11.50;99.90
67870;DHT22;54673;52.262;6.830;2023-10-31T03:36:02;11.70;99.90
67870;DHT22;54673;52.262;6.830;2023-10-31T03:38:28;11.50;99.90
67870;DHT22;54673;52.262;6.830;2023-10-31T03:40:54;11.40;99.90
67870;DHT22;54673;52.262;6.830;2023-10-31T03:43:19;12.50;99.90
67870;DHT22;54673;52.262;6.830;2023-10-31T03:45:48;11.40;99.90
67870;DHT22;54673;52.262;6.830;2023-10-31T03:48:15;11.40;99.90
67870;DHT22;54673;52.262;6.830;2023-10-31T03:50:41;11.40;99.90
67870;DHT22;54673;52.262;6.830;2023-10-31T03:53:07;11.40;99.90
67870;DHT22;54673;52.262;6.830;2023-10-31T03:55:32;11.80;99.90
67870;DHT22;54673;52.262;6.830;2023-10-31T03:57:58;12.10;99.90
67870;DHT22;54673;52.262;6.830;2023-10-31T04:00:24;11.30;99.90
67870;DHT22;54673;52.262;6.830;2023-10-31T04:02:49;12.20;99.90
67870;DHT22;54673;52.262;6.830;2023-10-31T04:05:15;11.30;99.90
67870;DHT22;54673;52.262;6.830;2023-10-31T04:07:40;11.30;99.90
67870;DHT22;54673;52.262;6.830;2023-10-31T04:10:07;11.30;99.90
67870;DHT22;54673;52.262;6.830;2023-10-31T04:12:34;11.30;99.90
67870;DHT22;54673;52.262;6.830;2023-10-31T04:15:00;11.30;99.90
67870;DHT22;54673;52.262;6.830;2023-10-31T04:17:26;11.30;99.90
67870;DHT22;54673;52.262;6.830;2023-10-31T04:19:52;11.30;99.90
67870;DHT22;54673;52.262;6.830;2023-10-31T04:22:17;11.30;99.90
67870;DHT22;54673;52.262;6.830;2023-10-31T04:24:43;11.30;99.90
67870;DHT22;54673;52.262;6.830;2023-10-31T04:27:09;11.20;99.90
67870;DHT22;54673;52.262;6.830;2023-10-31T04:29:34;12.10;99.90
67870;DHT22;54673;52.262;6.830;2023-10-31T04:32:00;11.20;99.90
67870;DHT22;54673;52.262;6.830;2023-10-31T04:34:26;11.20;99.90
67870;DHT22;54673;52.262;6.830;2023-10-31T04:36:51;12.00;99.90
67870;DHT22;54673;52.262;6.830;2023-10-31T04:39:17;11.20;99.90
67870;DHT22;54673;52.262;6.830;2023-10-31T04:41:43;11.60;99.90
67870;DHT22;54673;52.262;6.830;2023-10-31T04:44:08;11.20;99.90
67870;DHT22;54673;52.262;6.830;2023-10-31T04:46:34;11.30;99.90
67870;DHT22;54673;52.262;6.830;2023-10-31T04:48:59;11.80;99.90
67870;DHT22;54673;52.262;6.830;2023-10-31T04:51:25;11.10;99.90
67870;DHT22;54673;52.262;6.830;2023-10-31T04:53:51;11.20;99.90
67870;DHT22;54673;52.262;6.830;2023-10-31T04:56:17;11.40;99.90
67870;DHT22;54673;52.262;6.830;2023-10-31T04:58:43;11.30;99.90
67870;DHT22;54673;52.262;6.830;2023-10-31T05:01:12;11.10;99.90
67870;DHT22;54673;52.262;6.830;2023-10-31T05:03:38;11.10;99.90
67870;DHT22;54673;52.262;6.830;2023-10-31T05:06:05;11.10;99.90
67870;DHT22;54673;52.262;6.830;2023-10-31T05:08:31;11.10;99.90
67870;DHT22;54673;52.262;6.830;2023-10-31T05:10:58;11.90;99.90
67870;DHT22;54673;52.262;6.830;2023-10-31T05:13:23;11.50;99.90
67870;DHT22;54673;52.262;6.830;2023-10-31T05:15:49;11.10;99.90
67870;DHT22;54673;52.262;6.830;2023-10-31T05:18:15;11.00;99.90
67870;DHT22;54673;52.262;6.830;2023-10-31T05:20:41;11.00;99.90
67870;DHT22;54673;52.262;6.830;2023-10-31T05:23:07;11.00;99.90
67870;DHT22;54673;52.262;6.830;2023-10-31T05:25:32;11.00;99.90
67870;DHT22;54673;52.262;6.830;2023-10-31T05:27:58;11.00;99.90
67870;DHT22;54673;52.262;6.830;2023-10-31T05:30:24;11.00;99.90
67870;DHT22;54673;52.262;6.830;2023-10-31T05:32:51;11.00;99.90
67870;DHT22;54673;52.262;6.830;2023-10-31T05:35:17;11.00;99.90
67870;DHT22;54673;52.262;6.830;2023-10-31T05:37:43;11.00;99.90
67870;DHT22;54673;52.262;6.830;2023-10-31T05:40:09;11.20;99.90
67870;DHT22;54673;52.262;6.830;2023-10-31T05:42:35;10.90;99.90
67870;DHT22;54673;52.262;6.830;2023-10-31T05:45:00;11.50;99.90
67870;DHT22;54673;52.262;6.830;2023-10-31T05:47:26;10.90;99.90
67870;DHT22;54673;52.262;6.830;2023-10-31T05:49:53;10.90;99.90
67870;DHT22;54673;52.262;6.830;2023-10-31T05:52:18;11.30;99.90
67870;DHT22;54673;52.262;6.830;2023-10-31T05:54:44;10.90;99.90
67870;DHT22;54673;52.262;6.830;2023-10-31T05:57:10;10.90;99.90
67870;DHT22;54673;52.262;6.830;2023-10-31T05:59:35;10.90;99.90
67870;DHT22;54673;52.262;6.830;2023-10-31T06:02:01;10.90;99.90
67870;DHT22;54673;52.262;6.830;2023-10-31T06:04:26;10.90;99.90
67870;DHT22;54673;52.262;6.830;2023-10-31T06:06:52;10.90;99.90
67870;DHT22;54673;52.262;6.830;2023-10-31T06:09:17;10.80;99.90
67870;DHT22;54673;52.262;6.830;2023-10-31T06:11:43;10.80;99.90
67870;DHT22;54673;52.262;6.830;2023-10-31T06:14:13;10.80;99.90
67870;DHT22;54673;52.262;6.830;2023-10-31T06:16:45;10.80;99.90
67870;DHT22;54673;52.262;6.830;2023-10-31T06:19:10;10.90;99.90
67870;DHT22;54673;52.262;6.830;2023-10-31T06:21:36;10.80;99.90
67870;DHT22;54673;52.262;6.830;2023-10-31T06:24:05;10.80;99.90
67870;DHT22;54673;52.262;6.830;2023-10-31T06:26:30;10.80;99.90
67870;DHT22;54673;52.262;6.830;2023-10-31T06:28:56;10.80;99.90
67870;DHT22;54673;52.262;6.830;2023-10-31T06:31:22;10.80;99.90
67870;DHT22;54673;52.262;6.830;2023-10-31T06:33:47;10.80;99.90
67870;DHT22;54673;52.262;6.830;2023-10-31T06:36:13;10.80;99.90
67870;DHT22;54673;52.262;6.830;2023-10-31T06:38:38;10.80;99.90
67870;DHT22;54673;52.262;6.830;2023-10-31T06:41:04;11.80;99.90
67870;DHT22;54673;52.262;6.830;2023-10-31T06:43:30;10.80;99.90
67870;DHT22;54673;52.262;6.830;2023-10-31T06:45:55;10.70;99.90
67870;DHT22;54673;52.262;6.830;2023-10-31T06:48:22;10.70;99.90
67870;DHT22;54673;52.262;6.830;2023-10-31T06:50:48;11.30;99.90
67870;DHT22;54673;52.262;6.830;2023-10-31T06:53:14;10.70;99.90
67870;DHT22;54673;52.262;6.830;2023-10-31T06:55:40;10.70;99.90
67870;DHT22;54673;52.262;6.830;2023-10-31T06:58:05;10.70;99.90
67870;DHT22;54673;52.262;6.830;2023-10-31T07:00:31;11.70;99.90
67870;DHT22;54673;52.262;6.830;2023-10-31T07:02:56;10.70;99.90
67870;DHT22;54673;52.262;6.830;2023-10-31T07:05:24;10.70;99.90
67870;DHT22;54673;52.262;6.830;2023-10-31T07:07:50;10.60;99.90
67870;DHT22;54673;52.262;6.830;2023-10-31T07:10:15;10.70;99.90
67870;DHT22;54673;52.262;6.830;2023-10-31T07:12:41;10.60;99.90
67870;DHT22;54673;52.262;6.830;2023-10-31T07:15:07;10.60;99.90
67870;DHT22;54673;52.262;6.830;2023-10-31T07:17:32;10.70;99.90
67870;DHT22;54673;52.262;6.830;2023-10-31T07:19:58;11.40;99.90
67870;DHT22;54673;52.262;6.830;2023-10-31T07:22:24;10.60;99.90
67870;DHT22;54673;52.262;6.830;2023-10-31T07:24:50;10.60;99.90
67870;DHT22;54673;52.262;6.830;2023-10-31T07:27:17;10.60;99.90
67870;DHT22;54673;52.262;6.830;2023-10-31T07:29:42;10.80;99.90
67870;DHT22;54673;52.262;6.830;2023-10-31T07:32:08;10.40;99.90
67870;DHT22;54673;52.262;6.830;2023-10-31T07:34:35;10.60;99.90
67870;DHT22;54673;52.262;6.830;2023-10-31T07:37:00;10.60;99.90
67870;DHT22;54673;52.262;6.830;2023-10-31T07:39:26;10.60;99.90
67870;DHT22;54673;52.262;6.830;2023-10-31T07:41:51;10.60;99.90
67870;DHT22;54673;52.262;6.830;2023-10-31T07:44:17;10.60;99.90
67870;DHT22;54673;52.262;6.830;2023-10-31T07:46:43;10.60;99.90
67870;DHT22;54673;52.262;6.830;2023-10-31T07:49:08;11.30;99.90
67870;DHT22;54673;52.262;6.830;2023-10-31T07:51:34;11.10;99.90
67870;DHT22;54673;52.262;6.830;2023-10-31T07:53:59;10.60;99.90
67870;DHT22;54673;52.262;6.830;2023-10-31T07:56:25;10.60;99.90
67870;DHT22;54673;52.262;6.830;2023-10-31T07:58:52;10.60;99.90
67870;DHT22;54673;52.262;6.830;2023-10-31T08:01:21;10.60;99.90
67870;DHT22;54673;52.262;6.830;2023-10-31T08:03:47;10.80;99.90
67870;DHT22;54673;52.262;6.830;2023-10-31T08:06:13;10.60;99.90
67870;DHT22;54673;52.262;6.830;2023-10-31T08:08:39;10.60;99.90
67870;DHT22;54673;52.262;6.830;2023-10-31T08:11:10;10.60;99.90
67870;DHT22;54673;52.262;6.830;2023-10-31T08:13:37;10.40;99.90
67870;DHT22;54673;52.262;6.830;2023-10-31T08:16:04;10.60;99.90
67870;DHT22;54673;52.262;6.830;2023-10-31T08:18:30;10.60;99.90
67870;DHT22;54673;52.262;6.830;2023-10-31T08:20:56;11.50;99.90
67870;DHT22;54673;52.262;6.830;2023-10-31T08:23:21;10.60;99.90
67870;DHT22;54673;52.262;6.830;2023-10-31T08:25:47;10.60;99.90
67870;DHT22;54673;52.262;6.830;2023-10-31T08:28:13;10.60;99.90
67870;DHT22;54673;52.262;6.830;2023-10-31T08:30:39;11.40;99.90
67870;DHT22;54673;52.262;6.830;2023-10-31T08:33:04;10.70;99.90
67870;DHT22;54673;52.262;6.830;2023-10-31T08:35:31;11.80;99.90
67870;DHT22;54673;52.262;6.830;2023-10-31T08:37:56;11.30;99.90
67870;DHT22;54673;52.262;6.830;2023-10-31T08:40:22;11.80;99.90
67870;DHT22;54673;52.262;6.830;2023-10-31T08:42:48;10.70;99.90
67870;DHT22;54673;52.262;6.830;2023-10-31T08:45:14;10.70;99.90
67870;DHT22;54673;52.262;6.830;2023-10-31T08:47:40;11.40;99.90
67870;DHT22;54673;52.262;6.830;2023-10-31T08:50:06;10.70;99.90
67870;DHT22;54673;52.262;6.830;2023-10-31T08:52:34;10.70;99.90
67870;DHT22;54673;52.262;6.830;2023-10-31T08:55:00;10.70;99.90
67870;DHT22;54673;52.262;6.830;2023-10-31T08:57:25;11.50;99.90
67870;DHT22;54673;52.262;6.830;2023-10-31T08:59:51;10.80;99.90
67870;DHT22;54673;52.262;6.830;2023-10-31T09:02:17;10.80;99.90
67870;DHT22;54673;52.262;6.830;2023-10-31T09:04:42;11.10;99.90
67870;DHT22;54673;52.262;6.830;2023-10-31T09:07:08;11.70;99.90
67870;DHT22;54673;52.262;6.830;2023-10-31T09:09:33;11.40;99.90
67870;DHT22;54673;52.262;6.830;2023-10-31T09:11:59;11.20;99.90
67870;DHT22;54673;52.262;6.830;2023-10-31T09:14:24;10.90;99.90
67870;DHT22;54673;52.262;6.830;2023-10-31T09:16:50;10.70;99.90
67870;DHT22;54673;52.262;6.830;2023-10-31T09:19:16;10.90;99.90
67870;DHT22;54673;52.262;6.830;2023-10-31T09:21:41;11.00;99.90
67870;DHT22;54673;52.262;6.830;2023-10-31T09:24:07;11.00;99.90
67870;DHT22;54673;52.262;6.830;2023-10-31T09:26:33;11.00;99.90
67870;DHT22;54673;52.262;6.830;2023-10-31T09:28:59;11.00;99.90
67870;DHT22;54673;52.262;6.830;2023-10-31T09:31:24;11.10;99.90
67870;DHT22;54673;52.262;6.830;2023-10-31T09:33:50;11.30;99.90
67870;DHT22;54673;52.262;6.830;2023-10-31T09:36:16;11.10;99.90
67870;DHT22;54673;52.262;6.830;2023-10-31T09:38:41;11.40;99.90
67870;DHT22;54673;52.262;6.830;2023-10-31T09:41:07;11.10;99.90
67870;DHT22;54673;52.262;6.830;2023-10-31T09:43:33;11.20;99.90
67870;DHT22;54673;52.262;6.830;2023-10-31T09:45:58;11.40;99.90
67870;DHT22;54673;52.262;6.830;2023-10-31T09:48:26;11.10;99.90
67870;DHT22;54673;52.262;6.830;2023-10-31T09:50:52;11.20;99.90
67870;DHT22;54673;52.262;6.830;2023-10-31T09:53:19;11.20;99.90
67870;DHT22;54673;52.262;6.830;2023-10-31T09:55:46;11.20;99.90
67870;DHT22;54673;52.262;6.830;2023-10-31T09:58:12;11.20;99.90
67870;DHT22;54673;52.262;6.830;2023-10-31T10:00:38;11.70;99.90
67870;DHT22;54673;52.262;6.830;2023-10-31T10:03:07;11.30;99.90
67870;DHT22;54673;52.262;6.830;2023-10-31T10:05:36;11.30;99.90
67870;DHT22;54673;52.262;6.830;2023-10-31T10:08:03;11.50;99.90
67870;DHT22;54673;52.262;6.830;2023-10-31T10:10:29;11.50;99.90
67870;DHT22;54673;52.262;6.830;2023-10-31T10:12:56;12.00;99.90
67870;DHT22;54673;52.262;6.830;2023-10-31T10:15:24;12.40;99.90
67870;DHT22;54673;52.262;6.830;2023-10-31T10:17:50;12.20;99.90
67870;DHT22;54673;52.262;6.830;2023-10-31T10:20:16;11.70;99.90
67870;DHT22;54673;52.262;6.830;2023-10-31T10:22:43;11.70;99.90
67870;DHT22;54673;52.262;6.830;2023-10-31T10:25:18;12.50;99.90
67870;DHT22;54673;52.262;6.830;2023-10-31T10:27:45;11.80;99.90
67870;DHT22;54673;52.262;6.830;2023-10-31T10:30:13;11.80;99.90
67870;DHT22;54673;52.262;6.830;2023-10-31T10:32:38;11.80;99.90
67870;DHT22;54673;52.262;6.830;2023-10-31T10:35:04;11.80;99.90
67870;DHT22;54673;52.262;6.830;2023-10-31T10:37:30;11.90;99.90
67870;DHT22;54673;52.262;6.830;2023-10-31T10:39:57;11.90;99.90
67870;DHT22;54673;52.262;6.830;2023-10-31T10:42:47;11.90;99.90
67870;DHT22;54673;52.262;6.830;2023-10-31T10:45:14;12.00;99.90
67870;DHT22;54673;52.262;6.830;2023-10-31T10:47:45;12.00;99.90
67870;DHT22;54673;52.262;6.830;2023-10-31T10:50:13;12.00;99.90
67870;DHT22;54673;52.262;6.830;2023-10-31T10:52:39;12.10;99.90
67870;DHT22;54673;52.262;6.830;2023-10-31T10:55:12;12.20;99.90
67870;DHT22;54673;52.262;6.830;2023-10-31T10:57:48;12.10;99.90
67870;DHT22;54673;52.262;6.830;2023-10-31T11:00:17;12.50;99.90
67870;DHT22;54673;52.262;6.830;2023-10-31T11:02:45;12.90;99.90
67870;DHT22;54673;52.262;6.830;2023-10-31T11:05:11;12.20;99.90
67870;DHT22;54673;52.262;6.830;2023-10-31T11:07:38;12.20;99.90
67870;DHT22;54673;52.262;6.830;2023-10-31T11:10:04;12.30;99.90
67870;DHT22;54673;52.262;6.830;2023-10-31T11:12:31;12.30;99.90
67870;DHT22;54673;52.262;6.830;2023-10-31T11:15:01;12.90;99.90
67870;DHT22;54673;52.262;6.830;2023-10-31T11:17:31;12.30;99.90
67870;DHT22;54673;52.262;6.830;2023-10-31T11:19:57;12.40;99.90
67870;DHT22;54673;52.262;6.830;2023-10-31T11:22:23;12.40;99.90
67870;DHT22;54673;52.262;6.830;2023-10-31T11:24:50;13.20;99.90
67870;DHT22;54673;52.262;6.830;2023-10-31T11:27:17;12.40;99.90
67870;DHT22;54673;52.262;6.830;2023-10-31T11:29:43;12.40;99.90
67870;DHT22;54673;52.262;6.830;2023-10-31T11:32:09;12.40;99.90
67870;DHT22;54673;52.262;6.830;2023-10-31T11:34:41;12.50;99.90
67870;DHT22;54673;52.262;6.830;2023-10-31T11:37:33;12.50;99.90
67870;DHT22;54673;52.262;6.830;2023-10-31T11:40:17;12.50;99.90
67870;DHT22;54673;52.262;6.830;2023-10-31T11:42:52;12.50;99.90
67870;DHT22;54673;52.262;6.830;2023-10-31T11:45:36;12.50;99.90
67870;DHT22;54673;52.262;6.830;2023-10-31T11:48:03;12.50;99.90
67870;DHT22;54673;52.262;6.830;2023-10-31T11:50:32;12.50;99.90
67870;DHT22;54673;52.262;6.830;2023-10-31T11:55:31;12.50;99.90
67870;DHT22;54673;52.262;6.830;2023-10-31T11:57:58;12.50;99.90
67870;DHT22;54673;52.262;6.830;2023-10-31T12:00:24;12.50;99.90
67870;DHT22;54673;52.262;6.830;2023-10-31T12:03:02;13.10;99.90
67870;DHT22;54673;52.262;6.830;2023-10-31T12:05:28;12.60;99.90
67870;DHT22;54673;52.262;6.830;2023-10-31T12:07:54;12.60;99.90
67870;DHT22;54673;52.262;6.830;2023-10-31T12:10:25;12.60;99.90
67870;DHT22;54673;52.262;6.830;2023-10-31T12:12:52;12.60;99.90
67870;DHT22;54673;52.262;6.830;2023-10-31T12:15:18;12.70;99.90
67870;DHT22;54673;52.262;6.830;2023-10-31T12:17:44;12.60;99.90
67870;DHT22;54673;52.262;6.830;2023-10-31T12:20:10;12.60;99.90
67870;DHT22;54673;52.262;6.830;2023-10-31T12:22:36;12.70;99.90
67870;DHT22;54673;52.262;6.830;2023-10-31T12:25:03;12.70;99.90
67870;DHT22;54673;52.262;6.830;2023-10-31T12:27:49;12.70;99.90
67870;DHT22;54673;52.262;6.830;2023-10-31T12:30:20;12.70;99.90
67870;DHT22;54673;52.262;6.830;2023-10-31T12:32:54;12.70;99.90
67870;DHT22;54673;52.262;6.830;2023-10-31T12:35:21;12.70;99.90
67870;DHT22;54673;52.262;6.830;2023-10-31T12:37:49;12.70;99.90
67870;DHT22;54673;52.262;6.830;2023-10-31T12:40:19;13.70;99.90
67870;DHT22;54673;52.262;6.830;2023-10-31T12:42:46;12.70;99.90
67870;DHT22;54673;52.262;6.830;2023-10-31T12:45:12;13.70;99.90
67870;DHT22;54673;52.262;6.830;2023-10-31T12:47:38;12.90;99.90
67870;DHT22;54673;52.262;6.830;2023-10-31T12:50:08;13.20;99.90
67870;DHT22;54673;52.262;6.830;2023-10-31T12:52:47;12.80;99.90
67870;DHT22;54673;52.262;6.830;2023-10-31T12:55:17;12.80;99.90
67870;DHT22;54673;52.262;6.830;2023-10-31T12:57:43;12.80;99.90
67870;DHT22;54673;52.262;6.830;2023-10-31T13:00:10;12.80;99.90
67870;DHT22;54673;52.262;6.830;2023-10-31T13:02:41;12.90;99.90
67870;DHT22;54673;52.262;6.830;2023-10-31T13:05:15;13.50;99.90
67870;DHT22;54673;52.262;6.830;2023-10-31T13:07:48;12.90;99.90
67870;DHT22;54673;52.262;6.830;2023-10-31T13:10:15;12.90;99.90
67870;DHT22;54673;52.262;6.830;2023-10-31T13:12:44;13.40;99.90
67870;DHT22;54673;52.262;6.830;2023-10-31T13:15:10;13.40;99.90
67870;DHT22;54673;52.262;6.830;2023-10-31T13:17:36;12.90;99.90
67870;DHT22;54673;52.262;6.830;2023-10-31T13:20:07;12.90;99.90
67870;DHT22;54673;52.262;6.830;2023-10-31T13:22:37;12.90;99.90
67870;DHT22;54673;52.262;6.830;2023-10-31T13:25:04;13.40;99.90
67870;DHT22;54673;52.262;6.830;2023-10-31T13:27:40;13.00;99.90
67870;DHT22;54673;52.262;6.830;2023-10-31T13:30:09;13.00;99.90
67870;DHT22;54673;52.262;6.830;2023-10-31T13:32:36;13.00;99.90
67870;DHT22;54673;52.262;6.830;2023-10-31T13:35:02;13.00;99.90
67870;DHT22;54673;52.262;6.830;2023-10-31T13:37:28;13.00;99.90
67870;DHT22;54673;52.262;6.830;2023-10-31T13:39:53;13.10;99.90
67870;DHT22;54673;52.262;6.830;2023-10-31T13:42:19;13.60;99.90
67870;DHT22;54673;52.262;6.830;2023-10-31T13:44:44;12.90;99.90
67870;DHT22;54673;52.262;6.830;2023-10-31T13:47:10;13.10;99.90
67870;DHT22;54673;52.262;6.830;2023-10-31T13:49:36;13.00;99.90
67870;DHT22;54673;52.262;6.830;2023-10-31T13:52:05;12.90;99.90
67870;DHT22;54673;52.262;6.830;2023-10-31T13:54:31;13.00;99.90
67870;DHT22;54673;52.262;6.830;2023-10-31T13:56:57;12.90;99.90
67870;DHT22;54673;52.262;6.830;2023-10-31T13:59:24;13.70;99.90
67870;DHT22;54673;52.262;6.830;2023-10-31T14:01:49;13.00;99.90
67870;DHT22;54673;52.262;6.830;2023-10-31T14:04:15;12.90;99.90
67870;DHT22;54673;52.262;6.830;2023-10-31T14:06:41;13.60;99.90
67870;DHT22;54673;52.262;6.830;2023-10-31T14:09:08;13.20;99.90
67870;DHT22;54673;52.262;6.830;2023-10-31T14:11:34;13.60;99.90
67870;DHT22;54673;52.262;6.830;2023-10-31T14:14:00;12.90;99.90
67870;DHT22;54673;52.262;6.830;2023-10-31T14:16:32;13.00;99.90
67870;DHT22;54673;52.262;6.830;2023-10-31T14:18:58;12.90;99.90
67870;DHT22;54673;52.262;6.830;2023-10-31T14:21:24;12.90;99.90
67870;DHT22;54673;52.262;6.830;2023-10-31T14:23:51;13.20;99.90
67870;DHT22;54673;52.262;6.830;2023-10-31T14:26:22;13.70;99.90
67870;DHT22;54673;52.262;6.830;2023-10-31T14:28:48;13.30;99.90
67870;DHT22;54673;52.262;6.830;2023-10-31T14:31:15;13.70;99.90
67870;DHT22;54673;52.262;6.830;2023-10-31T14:33:41;13.70;99.90
67870;DHT22;54673;52.262;6.830;2023-10-31T14:36:07;12.80;99.90
67870;DHT22;54673;52.262;6.830;2023-10-31T14:38:35;12.80;99.90
67870;DHT22;54673;52.262;6.830;2023-10-31T14:41:01;12.80;99.90
67870;DHT22;54673;52.262;6.830;2023-10-31T14:43:27;12.80;99.90
67870;DHT22;54673;52.262;6.830;2023-10-31T14:45:52;13.20;99.90
67870;DHT22;54673;52.262;6.830;2023-10-31T14:48:20;13.40;99.90
67870;DHT22;54673;52.262;6.830;2023-10-31T14:50:46;13.40;99.90
67870;DHT22;54673;52.262;6.830;2023-10-31T14:53:16;13.70;99.90
67870;DHT22;54673;52.262;6.830;2023-10-31T14:55:43;12.70;99.90
67870;DHT22;54673;52.262;6.830;2023-10-31T14:58:09;12.70;99.90
67870;DHT22;54673;52.262;6.830;2023-10-31T15:00:35;12.70;99.90
67870;DHT22;54673;52.262;6.830;2023-10-31T15:03:01;12.70;99.90
67870;DHT22;54673;52.262;6.830;2023-10-31T15:05:27;12.70;99.90
67870;DHT22;54673;52.262;6.830;2023-10-31T15:07:52;12.70;99.90
67870;DHT22;54673;52.262;6.830;2023-10-31T15:10:19;12.60;99.90
67870;DHT22;54673;52.262;6.830;2023-10-31T15:12:48;12.60;99.90
67870;DHT22;54673;52.262;6.830;2023-10-31T15:15:16;12.90;99.90
67870;DHT22;54673;52.262;6.830;2023-10-31T15:17:42;12.60;99.90
67870;DHT22;54673;52.262;6.830;2023-10-31T15:20:08;12.60;99.90
67870;DHT22;54673;52.262;6.830;2023-10-31T15:22:40;12.60;99.90
67870;DHT22;54673;52.262;6.830;2023-10-31T15:25:08;12.60;99.90
67870;DHT22;54673;52.262;6.830;2023-10-31T15:27:34;12.60;99.90
67870;DHT22;54673;52.262;6.830;2023-10-31T15:30:00;12.60;99.90